createdAt,value
2019-05-10T00:00:43.469Z,100354.84
2019-05-10T00:03:33.101Z,100360.72
2019-05-10T00:06:20.942Z,100361.32
2019-05-10T00:08:52.287Z,100357.95
2019-05-10T00:11:35.624Z,100366.36
2019-05-10T00:14:29.792Z,100364.70
2019-05-10T00:17:24.889Z,100366.52
2019-05-10T00:20:03.526Z,100370.93
2019-05-10T00:22:35.286Z,100372.76
2019-05-10T00:25:06.449Z,100377.92
2019-05-10T00:27:38.198Z,100376.37
2019-05-10T00:30:13.004Z,100377.83
2019-05-10T00:32:43.330Z,100381.77
2019-05-10T00:35:13.726Z,100383.01
2019-05-10T00:37:45.690Z,100387.27
2019-05-10T00:40:15.960Z,100394.33
2019-05-10T00:42:47.959Z,100396.06
2019-05-10T00:45:31.917Z,100394.56
2019-05-10T00:48:02.095Z,100404.09
2019-05-10T00:50:32.285Z,100406.12
2019-05-10T00:53:02.499Z,100402.64
2019-05-10T00:55:34.253Z,100405.70
2019-05-10T00:58:04.800Z,100413.22
2019-05-10T01:00:36.948Z,100419.35
2019-05-10T01:03:07.053Z,100419.78
2019-05-10T01:05:37.825Z,100425.64
2019-05-10T01:08:09.076Z,100428.09
2019-05-10T01:10:39.224Z,100428.31
2019-05-10T01:13:09.480Z,100421.67
2019-05-10T01:15:40.786Z,100426.22
2019-05-10T01:18:10.933Z,100431.13
2019-05-10T01:20:41.172Z,100437.91
2019-05-10T01:23:11.313Z,100429.83
2019-05-10T01:25:43.946Z,100434.09
2019-05-10T01:28:14.150Z,100430.09
2019-05-10T01:30:45.202Z,100436.12
2019-05-10T01:33:15.433Z,100448.39
2019-05-10T01:35:45.689Z,100446.64
2019-05-10T01:38:22.910Z,100454.38
2019-05-10T01:40:53.471Z,100454.45
2019-05-10T01:43:26.916Z,100460.37
2019-05-10T01:45:58.704Z,100462.27
2019-05-10T01:48:31.608Z,100465.92
2019-05-10T01:51:02.962Z,100468.02
2019-05-10T01:53:33.194Z,100469.12
2019-05-10T01:56:03.563Z,100476.71
2019-05-10T01:58:36.947Z,100472.52
2019-05-10T02:01:07.149Z,100485.22
2019-05-10T02:03:38.717Z,100483.56
2019-05-10T02:06:10.530Z,100483.76
2019-05-10T02:08:40.777Z,100491.14
2019-05-10T02:11:14.210Z,100492.34
2019-05-10T02:13:50.317Z,100494.80
2019-05-10T02:16:20.586Z,100494.37
2019-05-10T02:18:50.847Z,100504.42
2019-05-10T02:21:25.065Z,100502.11
2019-05-10T02:23:56.446Z,100507.45
2019-05-10T02:26:26.719Z,100511.89
2019-05-10T02:29:01.159Z,100509.30
2019-05-10T02:31:33.201Z,100511.70
2019-05-10T02:34:03.502Z,100511.24
2019-05-10T02:36:33.742Z,100514.89
2019-05-10T02:39:04.955Z,100519.26
2019-05-10T02:41:35.318Z,100529.55
2019-05-10T02:44:05.585Z,100531.90
2019-05-10T02:46:35.872Z,100533.80
2019-05-10T02:49:06.176Z,100538.64
2019-05-10T02:51:36.448Z,100542.50
2019-05-10T02:54:06.689Z,100542.03
2019-05-10T02:56:43.067Z,100546.19
2019-05-10T02:59:14.344Z,100547.70
2019-05-10T03:01:49.410Z,100553.95
2019-05-10T03:04:22.572Z,100553.07
2019-05-10T03:07:05.164Z,100563.93
2019-05-10T03:09:38.324Z,100569.36
2019-05-10T03:12:27.544Z,100568.33
2019-05-10T03:14:58.798Z,100570.59
2019-05-10T03:17:32.741Z,100580.25
2019-05-10T03:20:05.455Z,100580.20
2019-05-10T03:22:41.993Z,100583.79
2019-05-10T03:25:14.592Z,100593.68
2019-05-10T03:27:45.366Z,100592.59
2019-05-10T03:30:15.647Z,100597.41
2019-05-10T03:32:47.608Z,100596.33
2019-05-10T03:35:19.405Z,100602.34
2019-05-10T03:37:49.909Z,100611.13
2019-05-10T03:40:20.284Z,100612.98
2019-05-10T03:42:50.740Z,100615.44
2019-05-10T03:45:21.065Z,100616.05
2019-05-10T03:47:51.358Z,100619.56
2019-05-10T03:50:21.776Z,100622.05
2019-05-10T03:52:54.555Z,100627.17
2019-05-10T03:55:28.352Z,100623.33
2019-05-10T03:57:58.599Z,100628.62
2019-05-10T04:00:31.914Z,100633.02
2019-05-10T04:03:02.787Z,100632.34
2019-05-10T04:05:39.220Z,100630.08
2019-05-10T04:08:13.126Z,100633.95
2019-05-10T04:10:48.185Z,100640.77
2019-05-10T04:13:22.832Z,100646.72
2019-05-10T04:15:56.188Z,100645.39
2019-05-10T04:18:26.905Z,100646.86
2019-05-10T04:21:05.273Z,100646.09
2019-05-10T04:23:40.702Z,100659.09
2019-05-10T04:26:19.377Z,100659.93
2019-05-10T04:28:55.224Z,100668.63
2019-05-10T04:31:28.973Z,100665.21
2019-05-10T04:34:04.664Z,100673.03
2019-05-10T04:36:40.696Z,100672.77
2019-05-10T04:39:19.123Z,100680.99
2019-05-10T04:41:57.363Z,100683.73
2019-05-10T04:44:42.107Z,100684.03
2019-05-10T04:47:15.632Z,100687.38
2019-05-10T04:49:54.347Z,100686.64
2019-05-10T04:52:34.316Z,100689.22
2019-05-10T04:55:01.771Z,100692.36
2019-05-10T04:57:49.107Z,100696.55
2019-05-10T05:00:07.107Z,100697.05
2019-05-10T05:02:39.331Z,100690.55
2019-05-10T05:05:11.640Z,100703.76
2019-05-10T05:07:44.295Z,100702.63
2019-05-10T05:10:16.586Z,100702.23
2019-05-10T05:12:47.282Z,100698.17
2019-05-10T05:15:18.032Z,100710.02
2019-05-10T05:17:56.129Z,100708.61
2019-05-10T05:20:28.850Z,100712.26
2019-05-10T05:22:59.512Z,100717.74
2019-05-10T05:25:35.365Z,100721.95
2019-05-10T05:28:08.264Z,100727.00
2019-05-10T05:30:38.983Z,100734.43
2019-05-10T05:33:12.316Z,100733.39
2019-05-10T05:35:42.877Z,100744.93
2019-05-10T05:38:15.498Z,100746.63
2019-05-10T05:40:55.032Z,100749.02
2019-05-10T05:43:26.959Z,100748.33
2019-05-10T05:45:57.715Z,100755.97
2019-05-10T05:48:39.810Z,100752.79
2019-05-10T05:51:09.209Z,100762.92
2019-05-10T05:53:42.426Z,100764.77
2019-05-10T05:56:14.431Z,100762.22
2019-05-10T05:58:47.103Z,100768.20
2019-05-10T06:01:26.714Z,100772.39
2019-05-10T06:03:50.948Z,100782.66
2019-05-10T06:06:23.364Z,100785.30
2019-05-10T06:08:54.418Z,100785.20
2019-05-10T06:11:29.662Z,100788.58
2019-05-10T06:14:03.919Z,100793.97
2019-05-10T06:16:37.103Z,100794.30
2019-05-10T06:19:14.306Z,100800.39
2019-05-10T06:21:45.473Z,100804.84
2019-05-10T06:24:17.174Z,100814.20
2019-05-10T06:26:49.513Z,100810.03
2019-05-10T06:29:20.005Z,100820.70
2019-05-10T06:31:51.608Z,100817.52
2019-05-10T06:34:21.858Z,100831.10
2019-05-10T06:36:52.063Z,100838.66
2019-05-10T06:39:22.537Z,100841.55
2019-05-10T06:41:56.267Z,100845.61
2019-05-10T06:44:30.511Z,100851.08
2019-05-10T06:46:56.596Z,100862.73
2019-05-10T06:49:29.043Z,100862.44
2019-05-10T06:51:59.180Z,100863.77
2019-05-10T06:54:29.375Z,100868.58
2019-05-10T06:56:59.521Z,100866.06
2019-05-10T06:59:29.741Z,100877.03
2019-05-10T07:02:03.160Z,100879.48
2019-05-10T07:04:37.847Z,100878.88
2019-05-10T07:07:10.233Z,100885.03
2019-05-10T07:10:01.798Z,100892.32
2019-05-10T07:12:14.470Z,100898.70
2019-05-10T07:14:45.800Z,100904.88
2019-05-10T07:17:15.586Z,100904.03
2019-05-10T07:19:53.527Z,100902.41
2019-05-10T07:22:21.885Z,100905.67
2019-05-10T07:24:49.972Z,100910.34
2019-05-10T07:27:20.252Z,100908.94
2019-05-10T07:29:51.477Z,100915.30
2019-05-10T07:32:24.439Z,100909.47
2019-05-10T07:35:00.511Z,100914.36
2019-05-10T07:37:29.504Z,100922.42
2019-05-10T07:40:03.690Z,100922.99
2019-05-10T07:42:39.908Z,100922.08
2019-05-10T07:45:07.138Z,100919.73
2019-05-10T07:47:39.159Z,100922.71
2019-05-10T07:50:11.424Z,100932.52
2019-05-10T07:52:45.771Z,100936.29
2019-05-10T07:55:18.678Z,100939.30
2019-05-10T07:57:46.829Z,100945.77
2019-05-10T08:00:17.235Z,100947.66
2019-05-10T08:02:51.184Z,100947.30
2019-05-10T08:05:19.278Z,100956.67
2019-05-10T08:07:49.645Z,100954.75
2019-05-10T08:10:21.568Z,100956.74
2019-05-10T08:12:51.544Z,100963.61
2019-05-10T08:15:24.611Z,100966.70
2019-05-10T08:17:53.702Z,100964.22
2019-05-10T08:20:34.983Z,100959.13
2019-05-10T08:22:55.751Z,100955.20
2019-05-10T08:25:34.892Z,100962.61
2019-05-10T08:27:57.727Z,100962.72
2019-05-10T08:30:42.494Z,100967.52
2019-05-10T08:33:14.338Z,100964.09
2019-05-10T08:35:46.053Z,100977.35
2019-05-10T08:38:14.947Z,100975.97
2019-05-10T08:40:45.316Z,100972.83
2019-05-10T08:43:16.853Z,100978.68
2019-05-10T08:45:58.008Z,100980.28
2019-05-10T08:48:30.299Z,100990.69
2019-05-10T08:51:04.060Z,100989.33
2019-05-10T08:53:32.983Z,100997.10
2019-05-10T08:56:07.571Z,100999.37
2019-05-10T08:58:37.210Z,101004.72
2019-05-10T09:01:20.560Z,101009.00
2019-05-10T09:03:39.087Z,101005.22
2019-05-10T09:06:12.002Z,101015.38
2019-05-10T09:08:43.158Z,101015.16
2019-05-10T09:11:13.091Z,101014.95
2019-05-10T09:13:46.208Z,101027.62
2019-05-10T09:16:15.190Z,101033.92
2019-05-10T09:18:50.598Z,101032.59
2019-05-10T09:21:18.222Z,101036.04
2019-05-10T09:23:52.879Z,101033.93
2019-05-10T09:26:22.748Z,101035.09
2019-05-10T09:28:57.598Z,101042.95
2019-05-10T09:31:25.858Z,101056.12
2019-05-10T09:33:56.170Z,101061.85
2019-05-10T09:36:31.035Z,101057.95
2019-05-10T09:38:58.185Z,101062.96
2019-05-10T09:41:36.151Z,101067.39
2019-05-10T09:44:02.851Z,101070.13
2019-05-10T09:46:32.578Z,101069.26
2019-05-10T09:49:08.291Z,101069.25
2019-05-10T09:51:34.674Z,101072.49
2019-05-10T09:54:07.441Z,101079.91
2019-05-10T09:56:39.621Z,101082.78
2019-05-10T09:59:08.716Z,101076.94
2019-05-10T10:01:38.789Z,101087.47
2019-05-10T10:04:09.011Z,101095.92
2019-05-10T10:06:41.988Z,101094.83
2019-05-10T10:09:11.360Z,101106.58
2019-05-10T10:11:48.556Z,101105.74
2019-05-10T10:14:13.385Z,101107.96
2019-05-10T10:16:48.887Z,101097.82
2019-05-10T10:19:19.923Z,101117.75
2019-05-10T10:21:49.020Z,101106.31
2019-05-10T10:24:20.287Z,101107.98
2019-05-10T10:26:53.828Z,101107.64
2019-05-10T10:29:23.520Z,101110.94
2019-05-10T10:31:58.309Z,101108.39
2019-05-10T10:34:27.252Z,101112.06
2019-05-10T10:37:00.983Z,101114.99
2019-05-10T10:39:32.012Z,101105.73
2019-05-10T10:42:07.542Z,101104.23
2019-05-10T10:44:34.339Z,101110.75
2019-05-10T10:47:05.204Z,101097.28
2019-05-10T10:49:37.645Z,101107.19
2019-05-10T10:52:11.235Z,101100.18
2019-05-10T10:54:40.011Z,101111.00
2019-05-10T10:57:10.351Z,101100.45
2019-05-10T10:59:40.450Z,101106.54
2019-05-10T11:02:32.511Z,101108.57
2019-05-10T11:04:46.691Z,101113.11
2019-05-10T11:07:14.861Z,101108.14
2019-05-10T11:09:46.895Z,101116.40
2019-05-10T11:12:21.087Z,101123.88
2019-05-10T11:14:49.197Z,101123.42
2019-05-10T11:17:19.582Z,101122.45
2019-05-10T11:19:51.020Z,101130.16
2019-05-10T11:22:27.190Z,101125.62
2019-05-10T11:25:03.049Z,101130.58
2019-05-10T11:27:28.020Z,101126.86
2019-05-10T11:30:02.996Z,101122.27
2019-05-10T11:32:34.311Z,101125.26
2019-05-10T11:35:05.555Z,101127.16
2019-05-10T11:37:36.495Z,101119.84
2019-05-10T11:40:07.202Z,101131.09
2019-05-10T11:42:43.717Z,101130.78
2019-05-10T11:45:11.989Z,101121.77
2019-05-10T11:47:42.180Z,101125.77
2019-05-10T11:50:27.564Z,101125.08
2019-05-10T11:52:47.641Z,101122.08
2019-05-10T11:55:17.943Z,101121.69
2019-05-10T12:03:06.951Z,101130.48
2019-05-10T12:05:26.764Z,101140.33
2019-05-10T12:07:57.432Z,101139.72
2019-05-10T12:10:27.615Z,101143.77
2019-05-10T12:13:08.556Z,101141.38
2019-05-10T12:15:31.807Z,101148.48
2019-05-10T12:18:04.750Z,101141.28
2019-05-10T12:20:51.022Z,101147.75
2019-05-10T12:23:13.472Z,101147.92
2019-05-10T12:25:59.246Z,101156.88
2019-05-10T12:26:00.229Z,101127.48
2019-05-10T12:26:18.949Z,101138.77
2019-05-10T12:28:24.584Z,101153.77
2019-05-10T12:30:50.901Z,101156.77
2019-05-10T12:33:24.921Z,101158.52
2019-05-10T12:35:52.117Z,101155.92
2019-05-10T12:38:23.472Z,101162.42
2019-05-10T12:40:54.388Z,101163.44
2019-05-10T12:43:25.678Z,101170.53
2019-05-10T12:45:56.112Z,101173.48
2019-05-10T12:48:26.457Z,101182.09
2019-05-10T12:51:02.004Z,101176.94
2019-05-10T12:53:28.514Z,101171.52
2019-05-10T12:56:07.513Z,101187.24
2019-05-10T12:58:37.717Z,101177.60
2019-05-10T13:01:07.891Z,101173.63
2019-05-10T13:03:39.110Z,101185.45
2019-05-10T13:06:09.190Z,101173.94
2019-05-10T13:08:40.365Z,101179.98
2019-05-10T13:11:10.528Z,101185.75
2019-05-10T13:13:40.718Z,101193.39
2019-05-10T13:16:11.982Z,101193.56
2019-05-10T13:18:50.828Z,101200.14
2019-05-10T13:21:20.689Z,101205.91
2019-05-10T13:23:53.498Z,101209.02
2019-05-10T13:26:31.016Z,101205.58
2019-05-10T13:29:07.147Z,101212.14
2019-05-10T13:31:42.092Z,101208.68
2019-05-10T13:34:05.332Z,101222.77
2019-05-10T13:36:39.902Z,101220.41
2019-05-10T13:39:13.302Z,101222.09
2019-05-10T13:41:43.574Z,101221.72
2019-05-10T13:44:13.827Z,101223.96
2019-05-10T13:46:44.092Z,101227.21
2019-05-10T13:49:14.411Z,101224.53
2019-05-10T13:51:44.711Z,101227.13
2019-05-10T13:54:15.070Z,101230.13
2019-05-10T13:56:52.025Z,101231.08
2019-05-10T13:59:19.200Z,101226.63
2019-05-10T14:01:51.359Z,101229.84
2019-05-10T14:04:23.185Z,101220.09
2019-05-10T14:06:53.302Z,101226.13
2019-05-10T14:09:23.591Z,101230.04
2019-05-10T14:11:53.940Z,101227.11
2019-05-10T14:14:26.711Z,101234.30
2019-05-10T14:16:56.817Z,101236.28
2019-05-10T14:19:27.233Z,101231.87
2019-05-10T14:21:57.502Z,101236.08
2019-05-10T14:24:27.696Z,101229.61
2019-05-10T14:26:59.409Z,101224.63
2019-05-10T14:29:34.785Z,101232.70
2019-05-10T14:32:01.677Z,101236.57
2019-05-10T14:34:31.864Z,101238.67
2019-05-10T14:37:14.402Z,101240.16
2019-05-10T14:39:43.780Z,101245.05
2019-05-10T14:42:14.003Z,101242.55
2019-05-10T14:44:44.515Z,101257.50
2019-05-10T14:47:14.805Z,101254.16
2019-05-10T14:49:46.804Z,101260.47
2019-05-10T14:52:16.927Z,101259.02
2019-05-10T14:54:49.727Z,101257.34
2019-05-10T14:57:22.613Z,101254.31
2019-05-10T14:59:52.904Z,101255.85
2019-05-10T15:02:25.025Z,101258.62
2019-05-10T15:05:01.045Z,101260.20
2019-05-10T15:07:30.166Z,101254.69
2019-05-10T15:10:02.327Z,101251.32
2019-05-10T15:12:32.770Z,101247.10
2019-05-10T15:15:03.065Z,101238.90
2019-05-10T15:17:36.383Z,101244.83
2019-05-10T15:20:14.585Z,101241.95
2019-05-10T15:22:44.788Z,101249.12
2019-05-10T15:25:15.345Z,101245.38
2019-05-10T15:27:45.580Z,101241.23
2019-05-10T15:30:16.097Z,101241.54
2019-05-10T15:32:46.392Z,101239.66
2019-05-10T15:35:17.240Z,101243.22
2019-05-10T15:37:48.387Z,101242.25
2019-05-10T15:40:20.813Z,101248.84
2019-05-10T15:43:02.884Z,101240.56
2019-05-10T15:45:32.809Z,101239.19
2019-05-10T15:48:04.494Z,101246.73
2019-05-10T15:50:38.574Z,101244.61
2019-05-10T15:53:07.163Z,101243.05
2019-05-10T15:55:45.442Z,101244.02
2019-05-10T15:58:16.163Z,101245.31
2019-05-10T16:00:46.436Z,101237.64
2019-05-10T16:03:16.665Z,101241.19
2019-05-10T16:05:59.947Z,101239.31
2019-05-10T16:08:23.885Z,101243.37
2019-05-10T16:10:52.718Z,101240.20
2019-05-10T16:13:29.284Z,101232.53
2019-05-10T16:16:01.597Z,101242.31
2019-05-10T16:18:39.857Z,101244.15
2019-05-10T16:21:09.607Z,101247.08
2019-05-10T16:23:51.865Z,101254.14
2019-05-10T16:26:22.918Z,101247.67
2019-05-10T16:28:53.141Z,101249.17
2019-05-10T16:31:25.450Z,101251.80
2019-05-10T16:33:55.835Z,101247.33
2019-05-10T16:36:28.355Z,101239.97
2019-05-10T16:39:01.526Z,101244.76
2019-05-10T16:41:30.149Z,101243.16
2019-05-10T16:44:04.601Z,101239.15
2019-05-10T16:46:34.754Z,101238.48
2019-05-10T16:49:10.043Z,101236.02
2019-05-10T16:51:37.095Z,101242.02
2019-05-10T16:54:25.397Z,101238.95
2019-05-10T16:56:51.522Z,101236.94
2019-05-10T16:59:29.654Z,101244.80
2019-05-10T17:02:02.920Z,101244.09
2019-05-10T17:04:32.057Z,101248.02
2019-05-10T17:07:03.245Z,101245.99
2019-05-10T17:09:33.679Z,101243.68
2019-05-10T17:12:04.327Z,101245.00
2019-05-10T17:14:34.591Z,101244.38
2019-05-10T17:17:39.448Z,101243.72
2019-05-10T17:20:14.184Z,101237.39
2019-05-10T17:23:08.103Z,101242.30
2019-05-10T17:25:40.584Z,101238.27
2019-05-10T17:28:09.481Z,101231.55
2019-05-10T17:30:39.889Z,101237.11
2019-05-10T17:33:11.956Z,101237.19
2019-05-10T17:35:43.803Z,101239.33
2019-05-10T17:38:14.798Z,101246.27
2019-05-10T17:40:50.022Z,101236.50
2019-05-10T17:43:22.696Z,101242.25
2019-05-10T17:45:57.243Z,101241.96
2019-05-10T17:48:29.334Z,101240.73
2019-05-10T17:50:59.831Z,101239.43
2019-05-10T17:53:31.469Z,101243.02
2019-05-10T17:56:03.586Z,101239.48
2019-05-10T17:58:35.089Z,101239.08
2019-05-10T18:01:05.536Z,101236.79
2019-05-10T18:03:58.117Z,101241.88
2019-05-10T18:06:32.767Z,101241.80
2019-05-10T18:09:09.385Z,101244.12
2019-05-10T18:11:45.146Z,101246.16
2019-05-10T18:14:17.873Z,101248.54
2019-05-10T18:16:49.833Z,101245.16
2019-05-10T18:19:24.912Z,101252.15
2019-05-10T18:22:00.775Z,101257.49
2019-05-10T18:24:36.406Z,101254.66
2019-05-10T18:27:05.151Z,101251.95
2019-05-10T18:29:40.181Z,101250.92
2019-05-10T18:32:29.209Z,101244.08
2019-05-10T18:34:58.886Z,101252.70
2019-05-10T18:37:31.998Z,101255.47
2019-05-10T18:40:04.074Z,101251.31
2019-05-10T18:42:41.567Z,101256.73
2019-05-10T18:45:13.324Z,101262.72
2019-05-10T18:47:45.076Z,101268.04
2019-05-10T18:50:17.272Z,101271.31
2019-05-10T18:52:52.007Z,101265.86
2019-05-10T18:55:24.481Z,101269.41
2019-05-10T18:57:54.750Z,101277.14
2019-05-10T19:01:00.420Z,101285.03
2019-05-10T19:03:09.075Z,101289.41
2019-05-10T19:05:39.431Z,101295.04
2019-05-10T19:08:10.948Z,101300.02
2019-05-10T19:10:42.665Z,101299.39
2019-05-10T19:13:18.363Z,101303.31
2019-05-10T19:15:53.064Z,101306.30
2019-05-10T19:18:25.514Z,101303.99
2019-05-10T19:24:12.052Z,101314.45
2019-05-10T19:26:50.497Z,101317.52
2019-05-10T19:29:27.503Z,101319.22
2019-05-10T19:32:03.535Z,101317.39
2019-05-10T19:35:29.713Z,101321.07
2019-05-10T19:38:30.650Z,101318.09
2019-05-10T19:41:12.393Z,101320.84
2019-05-10T19:43:50.200Z,101305.62
2019-05-10T19:46:38.601Z,101316.27
2019-05-10T19:49:23.255Z,101315.78
2019-05-10T19:52:00.849Z,101311.30
2019-05-10T19:54:33.881Z,101310.41
2019-05-10T19:57:15.128Z,101311.66
2019-05-10T19:59:48.606Z,101310.28
2019-05-10T20:02:23.781Z,101308.75
2019-05-10T20:04:59.213Z,101310.51
2019-05-10T20:07:45.208Z,101316.48
2019-05-10T20:10:07.750Z,101313.17
2019-05-10T20:12:41.030Z,101313.74
2019-05-10T20:15:18.809Z,101317.93
2019-05-10T20:17:51.696Z,101312.84
2019-05-10T20:20:22.734Z,101304.61
2019-05-10T20:22:54.342Z,101312.77
2019-05-10T20:25:39.614Z,101317.92
2019-05-10T20:28:13.338Z,101318.47
2019-05-10T20:30:45.448Z,101315.75
2019-05-10T20:33:15.999Z,101313.34
2019-05-10T20:35:47.503Z,101308.89
2019-05-10T20:38:18.113Z,101313.56
2019-05-10T20:40:49.921Z,101312.59
2019-05-10T20:43:21.984Z,101314.83
2019-05-10T20:45:55.107Z,101312.36
2019-05-10T20:48:25.436Z,101313.22
2019-05-10T20:50:55.620Z,101312.00
2019-05-10T20:53:26.012Z,101308.42
2019-05-10T20:55:56.214Z,101312.63
2019-05-10T20:58:26.507Z,101309.29
2019-05-10T21:00:57.015Z,101315.83
2019-05-10T21:03:27.321Z,101309.77
2019-05-10T21:05:58.993Z,101311.76
2019-05-10T21:08:30.540Z,101315.66
2019-05-10T21:11:00.708Z,101317.45
2019-05-10T21:13:30.946Z,101313.66
2019-05-10T21:16:01.709Z,101313.98
2019-05-10T21:18:31.890Z,101309.30
2019-05-10T21:21:02.191Z,101304.20
2019-05-10T21:23:32.523Z,101308.17
2019-05-10T21:26:03.724Z,101307.80
2019-05-10T21:28:34.119Z,101309.69
2019-05-10T21:31:04.497Z,101306.06
2019-05-10T21:33:34.757Z,101312.95
2019-05-10T21:36:05.123Z,101313.56
2019-05-10T21:38:36.869Z,101313.42
2019-05-10T21:41:09.250Z,101309.01
2019-05-10T21:43:41.348Z,101311.00
2019-05-10T21:46:13.198Z,101307.06
2019-05-10T21:48:44.502Z,101311.59
2019-05-10T21:51:23.664Z,101302.94
2019-05-10T21:53:53.994Z,101311.34
2019-05-10T21:56:24.439Z,101311.34
2019-05-10T21:59:04.625Z,101318.95
2019-05-10T22:01:35.950Z,101315.56
2019-05-10T22:04:08.604Z,101317.20
2019-05-10T22:06:40.186Z,101317.63
2019-05-10T22:09:13.349Z,101316.38
2019-05-10T22:11:45.776Z,101319.23
2019-05-10T22:14:18.358Z,101322.34
2019-05-10T22:16:50.669Z,101329.85
2019-05-10T22:19:20.877Z,101322.13
2019-05-10T22:22:01.417Z,101323.04
2019-05-10T22:24:35.555Z,101323.30
2019-05-10T22:27:07.260Z,101320.36
2019-05-10T22:29:37.548Z,101323.20
2019-05-10T22:32:10.793Z,101325.41
2019-05-10T22:34:48.755Z,101320.64
2019-05-10T22:37:24.682Z,101317.88
2019-05-10T22:40:00.027Z,101317.73
2019-05-10T22:42:39.972Z,101317.70
2019-05-10T22:45:20.348Z,101321.64
2019-05-10T22:47:53.396Z,101322.16
2019-05-10T22:50:29.356Z,101320.64
2019-05-10T22:53:10.949Z,101322.41
2019-05-10T22:55:41.474Z,101314.95
2019-05-10T22:58:15.721Z,101320.39
2019-05-10T23:00:48.308Z,101330.94
2019-05-10T23:03:24.423Z,101331.12
2019-05-10T23:05:57.207Z,101327.12
2019-05-10T23:08:30.256Z,101332.20
2019-05-10T23:11:06.597Z,101329.00
2019-05-10T23:13:48.879Z,101326.30
2019-05-10T23:16:22.142Z,101323.25
2019-05-10T23:18:53.566Z,101324.83
2019-05-10T23:21:27.557Z,101324.58
2019-05-10T23:24:06.651Z,101331.94
2019-05-10T23:26:38.852Z,101328.17
2019-05-10T23:29:19.032Z,101330.20
2019-05-10T23:31:58.594Z,101334.01
2019-05-10T23:34:29.881Z,101324.69
2019-05-10T23:37:07.950Z,101321.69
2019-05-10T23:39:45.626Z,101317.98
2019-05-10T23:42:32.301Z,101315.67
2019-05-10T23:45:07.154Z,101312.37
2019-05-10T23:47:49.516Z,101308.89
2019-05-10T23:50:19.719Z,101317.53
2019-05-10T23:52:52.078Z,101312.86
2019-05-10T23:55:26.121Z,101314.11
2019-05-10T23:58:05.829Z,101308.48
